Edwards Crossroads, North Carolina
Current Conditions -  °F | °C
As of 4:35 PM on Wednesday 17 Dec 2014 (Local Time) from KGEV Reporting Station
Clear Clear  
Wind Chill: 35°   Ceiling: Unl
Heat Index: 42°   Visibility: 10mi
Dew Point: 26°   Wind: 12mph
Humidity: 52%   Direction: 270°W
Pressure: 30.04"   Gusts: NA
Location:  36.5212°N, 81.1574°W
Report Text: KGEV 172135Z AUTO 27010KT 10SM CLR 06/M04 A3004 RMK AO2 T00551036
Loading
Personal Weather Stations






























Interactive Weather Map New forecast layout! Learn more

10-Day Weather Forecast

Advertisements
Track Severe Weather on mobile